Time;durP1;ratioP1;P1;durP2;ratioP2;P2;SDS_P1;SDS_P2;PMS_P1;PMS_P2;Temp;Humidity;BMP_temperature;BMP_pressure;BME280_temperature;BME280_humidity;BME280_pressure;Samples;Min_cycle;Max_cycle;Signal;HPM_P1;HPM_P2
2021/12/04 00:01:56;;;;;;;;;;;3.50;1.00;;;;;;5078463;28;19932;-70
2021/12/04 00:04:27;;;;;;;;;;;3.50;1.00;;;;;;5050571;28;19934;-70
2021/12/04 00:06:55;;;;;;;;;;;3.50;1.00;;;;;;5083059;28;19928;-70
2021/12/04 00:09:23;;;;;;;;;;;3.50;1.00;;;;;;5079631;28;19924;-70
2021/12/04 00:11:55;;;;;;;;;;;3.50;1.00;;;;;;5099582;27;19970;-70
2021/12/04 00:14:23;;;;;;;;;;;3.50;1.00;;;;;;5084993;28;20298;-70
2021/12/04 00:16:51;;;;;;;;;;;3.50;1.00;;;;;;5094706;28;19982;-70
2021/12/04 00:19:21;;;;;;;;;;;3.50;1.00;;;;;;5102047;27;19935;-70
2021/12/04 00:21:49;;;;;;;;;;;3.50;1.00;;;;;;5069346;28;19970;-70
2021/12/04 00:24:17;;;;;;;;;;;3.50;1.00;;;;;;5107863;27;19966;-69
2021/12/04 00:26:45;;;;;;;;;;;3.50;1.00;;;;;;5097349;27;19924;-71
2021/12/04 00:29:13;;;;;;;;;;;3.60;1.00;;;;;;5094330;27;19971;-70
2021/12/04 00:31:46;;;;;;;;;;;3.60;1.00;;;;;;5090996;28;19928;-70
2021/12/04 00:34:14;;;;;;;;;;;3.60;1.00;;;;;;5099412;27;19967;-68
2021/12/04 00:37:00;;;;;;;;;;;3.60;1.00;;;;;;5104414;27;19930;-70
2021/12/04 00:50:30;;;;;;;;;;;3.60;1.00;;;;;;5100922;28;19930;-69
2021/12/04 00:52:59;;;;;;;;;;;3.60;1.00;;;;;;5099615;27;19928;-70
2021/12/04 00:55:27;;;;;;;;;;;3.60;1.00;;;;;;5102392;27;20302;-69
2021/12/04 00:57:55;;;;;;;;;;;3.60;1.00;;;;;;5083736;28;20023;-70
2021/12/04 01:00:23;;;;;;;;;;;3.60;1.00;;;;;;5099540;28;19924;-70
2021/12/04 01:02:51;;;;;;;;;;;3.60;1.00;;;;;;5082353;28;19934;-69
2021/12/04 01:05:19;;;;;;;;;;;3.70;1.00;;;;;;5101685;28;19931;-69
2021/12/04 01:07:47;;;;;;;;;;;3.70;1.00;;;;;;5098853;28;19988;-69
2021/12/04 01:10:16;;;;;;;;;;;3.70;1.00;;;;;;5099223;28;19924;-69
2021/12/04 01:12:44;;;;;;;;;;;3.70;1.00;;;;;;5082106;28;19955;-69
2021/12/04 01:15:12;;;;;;;;;;;3.70;1.00;;;;;;5100526;28;20023;-69
2021/12/04 01:17:40;;;;;;;;;;;3.70;1.00;;;;;;5099431;28;19932;-69
2021/12/04 01:20:11;;;;;;;;;;;3.60;1.00;;;;;;5099250;28;19959;-69
2021/12/04 01:22:39;;;;;;;;;;;3.60;1.00;;;;;;5083435;28;19923;-69
2021/12/04 01:25:07;;;;;;;;;;;3.50;1.00;;;;;;5094802;28;19997;-69
2021/12/04 01:27:37;;;;;;;;;;;3.50;1.00;;;;;;5096993;28;20392;-69
2021/12/04 01:30:06;;;;;;;;;;;3.50;1.00;;;;;;5093396;28;19931;-69
2021/12/04 01:32:34;;;;;;;;;;;3.50;1.00;;;;;;5096880;28;19980;-70
2021/12/04 01:35:02;;;;;;;;;;;3.50;1.00;;;;;;5096899;28;20099;-69
2021/12/04 01:37:30;;;;;;;;;;;3.40;1.00;;;;;;5103706;28;20010;-70
2021/12/04 01:39:57;;;;;;;;;;;3.40;1.00;;;;;;5094585;28;19931;-69
2021/12/04 01:42:25;;;;;;;;;;;3.40;1.00;;;;;;5098905;28;19924;-69
2021/12/04 01:44:54;;;;;;;;;;;3.50;1.00;;;;;;5103103;27;19924;-70
2021/12/04 01:47:23;;;;;;;;;;;3.50;1.00;;;;;;5082768;28;20402;-70
2021/12/04 01:49:52;;;;;;;;;;;3.40;1.00;;;;;;5103139;27;20007;-71
2021/12/04 01:52:23;;;;;;;;;;;3.30;2.50;;;;;;5068765;28;19923;-71
2021/12/04 01:54:57;;;;;;;;;;;3.20;3.80;;;;;;5103816;27;20267;-70
2021/12/04 01:57:25;;;;;;;;;;;3.10;7.80;;;;;;5104963;27;20079;-71
2021/12/04 01:59:55;;;;;;;;;;;3.00;10.40;;;;;;5101841;27;19998;-71
2021/12/04 02:02:23;;;;;;;;;;;2.90;12.90;;;;;;5106465;28;19924;-72
2021/12/04 02:04:51;;;;;;;;;;;2.90;14.30;;;;;;5107655;27;19947;-72
2021/12/04 02:07:20;;;;;;;;;;;2.80;16.10;;;;;;5104246;27;20027;-74
2021/12/04 02:09:48;;;;;;;;;;;2.90;17.70;;;;;;5097850;28;19930;-74
2021/12/04 02:12:16;;;;;;;;;;;2.80;20.70;;;;;;5108602;27;19940;-72
2021/12/04 02:14:44;;;;;;;;;;;2.70;22.90;;;;;;5101814;27;19923;-72
2021/12/04 02:17:13;;;;;;;;;;;2.70;25.40;;;;;;5100873;28;19978;-72
2021/12/04 02:19:41;;;;;;;;;;;2.70;27.50;;;;;;5099751;27;19927;-72
2021/12/04 02:22:10;;;;;;;;;;;2.70;29.30;;;;;;5102915;28;19932;-72
2021/12/04 02:24:38;;;;;;;;;;;2.80;30.30;;;;;;5103956;28;19955;-72
2021/12/04 02:27:06;;;;;;;;;;;2.80;31.60;;;;;;5100587;27;19927;-73
2021/12/04 02:29:34;;;;;;;;;;;2.90;33.00;;;;;;5101122;28;19932;-73
2021/12/04 02:32:05;;;;;;;;;;;2.90;34.50;;;;;;5105957;27;19923;-73
2021/12/04 02:34:33;;;;;;;;;;;2.90;35.80;;;;;;5090812;28;19923;-73
2021/12/04 02:37:03;;;;;;;;;;;3.00;36.40;;;;;;5103897;27;20011;-73
2021/12/04 02:39:43;;;;;;;;;;;3.00;38.30;;;;;;5101786;28;20048;-73
2021/12/04 02:42:19;;;;;;;;;;;3.00;39.10;;;;;;5111224;27;19942;-73
2021/12/04 02:44:48;;;;;;;;;;;3.10;39.40;;;;;;5086212;28;19962;-73
2021/12/04 02:47:16;;;;;;;;;;;3.10;40.40;;;;;;5094997;28;19928;-73
2021/12/04 02:49:46;;;;;;;;;;;3.10;40.60;;;;;;5096679;28;20464;-73
2021/12/04 02:52:14;;;;;;;;;;;3.10;40.00;;;;;;5103695;28;19928;-72
2021/12/04 02:54:43;;;;;;;;;;;3.10;39.80;;;;;;5107548;27;20006;-72
2021/12/04 02:57:14;;;;;;;;;;;3.20;40.20;;;;;;5099888;28;19944;-72
2021/12/04 02:59:42;;;;;;;;;;;3.10;39.00;;;;;;5102902;27;20015;-72
2021/12/04 03:02:16;;;;;;;;;;;3.10;39.30;;;;;;5105459;27;19924;-72
2021/12/04 03:04:45;;;;;;;;;;;3.00;38.70;;;;;;5099411;27;19938;-73
2021/12/04 03:07:13;;;;;;;;;;;2.90;38.10;;;;;;5106137;27;19924;-72
2021/12/04 03:09:41;;;;;;;;;;;3.00;39.00;;;;;;5094607;27;20415;-72
2021/12/04 03:12:13;;;;;;;;;;;2.90;38.70;;;;;;5102999;27;20447;-73
2021/12/04 03:14:41;;;;;;;;;;;2.90;39.40;;;;;;5089170;28;19981;-73
2021/12/04 03:17:09;;;;;;;;;;;2.80;39.60;;;;;;5099024;28;20463;-72
2021/12/04 03:19:39;;;;;;;;;;;2.80;40.30;;;;;;5095564;27;19931;-72
2021/12/04 03:22:08;;;;;;;;;;;2.80;40.40;;;;;;5112810;27;20433;-72
2021/12/04 03:24:39;;;;;;;;;;;2.70;40.30;;;;;;5103068;28;19923;-72
2021/12/04 03:27:07;;;;;;;;;;;2.70;41.10;;;;;;5085941;27;20384;-72
2021/12/04 03:29:40;;;;;;;;;;;2.60;41.30;;;;;;5091038;28;19928;-72
2021/12/04 03:32:22;;;;;;;;;;;2.60;41.90;;;;;;5093711;28;20450;-72
2021/12/04 03:40:36;;;;;;;;;;;2.60;42.60;;;;;;5103368;28;19924;-73
2021/12/04 03:43:06;;;;;;;;;;;2.60;43.00;;;;;;5103255;28;19940;-73
2021/12/04 03:45:37;;;;;;;;;;;2.60;43.10;;;;;;5107168;27;19927;-73
2021/12/04 03:48:09;;;;;;;;;;;2.50;43.40;;;;;;5104271;28;19982;-73
2021/12/04 03:50:37;;;;;;;;;;;2.50;43.60;;;;;;5102108;28;20430;-73
2021/12/04 03:53:05;;;;;;;;;;;2.60;44.20;;;;;;5106688;28;20363;-74
2021/12/04 03:55:34;;;;;;;;;;;2.50;43.80;;;;;;5098761;28;19924;-74
2021/12/04 03:58:03;;;;;;;;;;;2.50;44.30;;;;;;5104423;27;19935;-74
2021/12/04 04:00:31;;;;;;;;;;;2.50;44.20;;;;;;5105452;28;19927;-74
2021/12/04 04:03:00;;;;;;;;;;;2.50;44.20;;;;;;5099733;28;19928;-72
2021/12/04 04:05:28;;;;;;;;;;;2.50;44.60;;;;;;5088811;28;19924;-72
2021/12/04 04:07:56;;;;;;;;;;;2.50;45.00;;;;;;5077492;28;20006;-72
2021/12/04 04:10:24;;;;;;;;;;;2.60;45.00;;;;;;5087206;28;19932;-73
2021/12/04 04:12:51;;;;;;;;;;;2.60;44.80;;;;;;5108970;27;20014;-73
2021/12/04 04:15:20;;;;;;;;;;;2.60;45.00;;;;;;5077450;28;19925;-73
2021/12/04 04:17:48;;;;;;;;;;;2.70;45.00;;;;;;5082671;28;19925;-73
2021/12/04 04:20:19;;;;;;;;;;;2.60;44.50;;;;;;5082604;28;19935;-73
2021/12/04 04:22:47;;;;;;;;;;;2.60;45.10;;;;;;5062261;28;20632;-73
2021/12/04 04:25:17;;;;;;;;;;;2.60;45.00;;;;;;5071515;27;20022;-73
2021/12/04 04:27:45;;;;;;;;;;;2.60;45.00;;;;;;5106968;27;19986;-73
2021/12/04 04:30:14;;;;;;;;;;;2.60;45.40;;;;;;5096150;28;19928;-73
2021/12/04 04:32:42;;;;;;;;;;;2.60;45.40;;;;;;5099760;28;20031;-73
2021/12/04 04:35:13;;;;;;;;;;;2.60;46.00;;;;;;5101529;27;19932;-73
2021/12/04 04:37:49;;;;;;;;;;;2.70;46.30;;;;;;5102108;27;20010;-73
2021/12/04 04:59:48;;;;;;;;;;;2.80;47.40;;;;;;5095775;28;20379;-73
2021/12/04 05:02:37;;;;;;;;;;;2.80;47.10;;;;;;5106280;27;19924;-73
2021/12/04 05:11:03;;;;;;;;;;;2.90;48.30;;;;;;5099842;27;19932;-72
2021/12/04 05:13:31;;;;;;;;;;;3.00;48.50;;;;;;5096525;28;19924;-73
2021/12/04 05:16:00;;;;;;;;;;;3.00;48.00;;;;;;5102257;28;20053;-73
2021/12/04 05:18:37;;;;;;;;;;;3.00;48.00;;;;;;5098888;27;19928;-73
2021/12/04 05:21:06;;;;;;;;;;;3.00;48.40;;;;;;5104872;27;19970;-72
2021/12/04 05:23:35;;;;;;;;;;;3.00;48.50;;;;;;5099552;28;20042;-73
2021/12/04 05:26:06;;;;;;;;;;;3.00;47.90;;;;;;5105931;28;20019;-73
2021/12/04 05:28:35;;;;;;;;;;;3.00;48.60;;;;;;5096203;28;19931;-73
2021/12/04 05:31:03;;;;;;;;;;;3.10;48.10;;;;;;5088264;28;20200;-72
2021/12/04 05:33:33;;;;;;;;;;;3.00;47.60;;;;;;5098545;28;20023;-72
2021/12/04 05:36:01;;;;;;;;;;;3.00;48.10;;;;;;5098815;28;19930;-72
2021/12/04 05:38:29;;;;;;;;;;;3.00;48.40;;;;;;5098346;28;20346;-73
2021/12/04 05:40:57;;;;;;;;;;;3.10;48.70;;;;;;5099529;28;19938;-73
2021/12/04 05:43:26;;;;;;;;;;;3.10;48.30;;;;;;5100850;27;20018;-73
2021/12/04 05:45:59;;;;;;;;;;;3.10;48.20;;;;;;5103404;28;19965;-72
2021/12/04 05:48:32;;;;;;;;;;;3.10;48.60;;;;;;5099509;28;19963;-73
2021/12/04 05:54:06;;;;;;;;;;;3.10;48.10;;;;;;5097524;28;19931;-72
2021/12/04 05:56:36;;;;;;;;;;;3.10;48.20;;;;;;5101306;28;19923;-72
2021/12/04 05:59:08;;;;;;;;;;;3.10;48.60;;;;;;5095870;28;19973;-72
2021/12/04 06:01:37;;;;;;;;;;;3.20;48.70;;;;;;5099438;28;19924;-73
2021/12/04 06:04:05;;;;;;;;;;;3.20;48.70;;;;;;5098079;28;19931;-72
2021/12/04 06:06:33;;;;;;;;;;;3.20;48.70;;;;;;5103872;28;19975;-72
2021/12/04 06:09:04;;;;;;;;;;;3.20;48.70;;;;;;5096778;28;21097;-70
2021/12/04 06:11:32;;;;;;;;;;;3.20;48.70;;;;;;5103504;28;19941;-71
2021/12/04 06:14:00;;;;;;;;;;;3.20;48.70;;;;;;5095783;28;20026;-71
2021/12/04 06:16:30;;;;;;;;;;;3.20;48.50;;;;;;5103971;28;20388;-71
2021/12/04 06:19:05;;;;;;;;;;;3.20;48.30;;;;;;5097902;28;19963;-72
2021/12/04 06:24:18;;;;;;;;;;;3.30;48.20;;;;;;5095163;28;19975;-71
2021/12/04 06:26:46;;;;;;;;;;;3.30;48.10;;;;;;5107053;28;20379;-71
2021/12/04 06:29:14;;;;;;;;;;;3.30;48.00;;;;;;5093257;28;19939;-71
2021/12/04 06:31:43;;;;;;;;;;;3.30;47.80;;;;;;5105437;28;20027;-71
2021/12/04 06:34:11;;;;;;;;;;;3.30;48.10;;;;;;5103871;28;20018;-71
2021/12/04 06:36:42;;;;;;;;;;;3.30;47.90;;;;;;5101910;27;19928;-71
2021/12/04 06:39:10;;;;;;;;;;;3.20;47.70;;;;;;5094404;27;19924;-71
2021/12/04 06:41:38;;;;;;;;;;;3.30;48.10;;;;;;5108136;27;19930;-70
2021/12/04 06:44:06;;;;;;;;;;;3.30;48.70;;;;;;5104159;28;19924;-70
2021/12/04 06:46:35;;;;;;;;;;;3.30;48.60;;;;;;5104788;27;20325;-70
2021/12/04 06:49:08;;;;;;;;;;;3.30;48.90;;;;;;5095339;27;19935;-70
2021/12/04 06:51:39;;;;;;;;;;;3.30;48.90;;;;;;5104558;28;20036;-72
2021/12/04 06:54:10;;;;;;;;;;;3.30;48.90;;;;;;5097820;27;19946;-72
2021/12/04 06:56:42;;;;;;;;;;;3.30;48.90;;;;;;5105093;27;19975;-71
2021/12/04 06:59:12;;;;;;;;;;;3.40;49.10;;;;;;5097497;27;19932;-72
2021/12/04 07:01:40;;;;;;;;;;;3.40;49.10;;;;;;5104519;28;19931;-70
2021/12/04 07:04:10;;;;;;;;;;;3.40;49.40;;;;;;5107501;27;19931;-70
2021/12/04 07:06:39;;;;;;;;;;;3.40;49.10;;;;;;5103326;27;19960;-70
2021/12/04 07:09:08;;;;;;;;;;;3.40;49.20;;;;;;5106150;27;20046;-70
2021/12/04 07:11:36;;;;;;;;;;;3.40;49.10;;;;;;5104019;27;19924;-71
2021/12/04 07:14:06;;;;;;;;;;;3.40;49.10;;;;;;5099568;28;19996;-71
2021/12/04 07:16:34;;;;;;;;;;;3.40;49.10;;;;;;5089309;28;20026;-72
2021/12/04 07:19:02;;;;;;;;;;;3.50;49.30;;;;;;5099669;27;19938;-71
2021/12/04 07:21:33;;;;;;;;;;;3.50;49.50;;;;;;5106794;27;20237;-71
2021/12/04 07:24:02;;;;;;;;;;;3.50;49.70;;;;;;5103737;27;19928;-71
2021/12/04 07:26:30;;;;;;;;;;;3.60;49.90;;;;;;5102327;28;19930;-70
2021/12/04 07:28:58;;;;;;;;;;;3.60;50.10;;;;;;5103469;27;19951;-70
2021/12/04 07:31:26;;;;;;;;;;;3.70;50.30;;;;;;5106150;28;19932;-71
2021/12/04 07:34:02;;;;;;;;;;;3.70;50.40;;;;;;5103369;27;19963;-70
2021/12/04 07:36:30;;;;;;;;;;;3.70;50.40;;;;;;5106254;28;19928;-70
2021/12/04 07:39:00;;;;;;;;;;;3.70;50.60;;;;;;5098996;27;19924;-71
2021/12/04 07:41:29;;;;;;;;;;;3.80;51.00;;;;;;5105366;27;20003;-71
2021/12/04 07:43:57;;;;;;;;;;;3.90;51.50;;;;;;5100556;28;20379;-70
2021/12/04 07:46:24;;;;;;;;;;;4.00;51.70;;;;;;5105139;28;19932;-70
2021/12/04 07:48:52;;;;;;;;;;;4.00;51.90;;;;;;5104289;27;20379;-70
2021/12/04 07:51:20;;;;;;;;;;;4.10;52.00;;;;;;5101937;27;19989;-71
2021/12/04 07:53:48;;;;;;;;;;;4.10;52.10;;;;;;5099152;27;19923;-71
2021/12/04 07:56:17;;;;;;;;;;;4.20;52.30;;;;;;5100496;27;19928;-70
2021/12/04 07:58:45;;;;;;;;;;;4.20;52.50;;;;;;5082812;28;20030;-71
2021/12/04 08:01:13;;;;;;;;;;;4.20;52.60;;;;;;5085600;28;20410;-71
2021/12/04 08:03:41;;;;;;;;;;;4.20;52.40;;;;;;5084974;28;20063;-71
2021/12/04 08:06:09;;;;;;;;;;;4.20;52.70;;;;;;5096641;27;19928;-71
2021/12/04 08:08:37;;;;;;;;;;;4.20;52.70;;;;;;5096489;27;19932;-71
2021/12/04 08:11:05;;;;;;;;;;;4.30;53.10;;;;;;5106082;27;19927;-71
2021/12/04 08:13:34;;;;;;;;;;;4.30;53.20;;;;;;5105333;27;19924;-71
2021/12/04 08:16:02;;;;;;;;;;;4.40;53.50;;;;;;5101430;27;20425;-71
2021/12/04 08:18:30;;;;;;;;;;;4.40;53.20;;;;;;5100415;27;20375;-69
2021/12/04 08:21:01;;;;;;;;;;;4.30;53.10;;;;;;5099223;28;19928;-71
2021/12/04 08:23:29;;;;;;;;;;;4.40;53.60;;;;;;5086154;27;19978;-71
2021/12/04 08:25:59;;;;;;;;;;;4.50;53.70;;;;;;5090710;28;20102;-72
2021/12/04 08:28:27;;;;;;;;;;;4.50;53.60;;;;;;5063805;28;20398;-72
2021/12/04 08:30:58;;;;;;;;;;;4.50;53.40;;;;;;5105608;27;19966;-71
2021/12/04 08:33:25;;;;;;;;;;;4.50;53.50;;;;;;5094878;28;19924;-71
2021/12/04 08:35:53;;;;;;;;;;;4.50;53.50;;;;;;5098601;27;19950;-72
2021/12/04 08:38:21;;;;;;;;;;;4.60;53.70;;;;;;5096645;28;19965;-72
2021/12/04 08:40:50;;;;;;;;;;;4.60;53.80;;;;;;5098707;27;19978;-71
2021/12/04 08:43:18;;;;;;;;;;;4.70;54.00;;;;;;5098807;27;19928;-71
2021/12/04 08:45:45;;;;;;;;;;;4.70;54.00;;;;;;5104066;27;19970;-71
2021/12/04 08:48:15;;;;;;;;;;;4.80;54.10;;;;;;5095482;28;20276;-70
2021/12/04 08:50:43;;;;;;;;;;;4.80;54.10;;;;;;5100591;27;19962;-70
2021/12/04 08:53:12;;;;;;;;;;;4.90;54.20;;;;;;5097773;28;19943;-71
2021/12/04 08:55:40;;;;;;;;;;;4.90;54.20;;;;;;5098103;28;19930;-71
2021/12/04 08:58:08;;;;;;;;;;;5.00;54.30;;;;;;5100335;27;20302;-71
2021/12/04 09:00:39;;;;;;;;;;;5.10;54.40;;;;;;5100089;28;19930;-72
2021/12/04 09:03:08;;;;;;;;;;;5.10;54.50;;;;;;5100565;27;19930;-72
2021/12/04 09:05:38;;;;;;;;;;;5.10;54.50;;;;;;5102531;27;19930;-71
2021/12/04 09:08:07;;;;;;;;;;;5.20;55.20;;;;;;5098937;28;20039;-71
2021/12/04 09:10:36;;;;;;;;;;;5.20;54.50;;;;;;5094131;28;20615;-72
2021/12/04 09:13:04;;;;;;;;;;;5.30;54.60;;;;;;5100453;27;20265;-72
2021/12/04 09:15:35;;;;;;;;;;;5.30;54.80;;;;;;5102371;28;20383;-72
2021/12/04 09:18:04;;;;;;;;;;;5.40;54.80;;;;;;5094779;28;19978;-71
2021/12/04 09:20:32;;;;;;;;;;;5.40;54.80;;;;;;5098179;28;19930;-72
2021/12/04 09:23:04;;;;;;;;;;;5.50;55.00;;;;;;5098109;28;20314;-71
2021/12/04 09:25:33;;;;;;;;;;;5.50;55.00;;;;;;5105028;28;19963;-71
2021/12/04 09:28:11;;;;;;;;;;;5.50;55.00;;;;;;5100588;28;19978;-70
2021/12/04 10:01:40;;;;;;;;;;;6.00;55.10;;;;;;5099973;28;20014;-72
2021/12/04 10:04:29;;;;;;;;;;;6.10;55.20;;;;;;5098435;28;19931;-71
2021/12/04 10:12:55;;;;;;;;;;;6.30;55.40;;;;;;5105294;27;20345;-71
2021/12/04 10:15:47;;;;;;;;;;;6.40;55.40;;;;;;5107850;28;19973;-71
2021/12/04 10:21:15;;;;;;;;;;;6.40;55.20;;;;;;5102856;27;20439;-71
2021/12/04 10:35:05;;;;;;;;;;;6.70;55.40;;;;;;5147754;27;19927;-71
2021/12/04 10:37:34;;;;;;;;;;;6.70;55.70;;;;;;5116916;27;19953;-71
2021/12/04 10:40:04;;;;;;;;;;;6.70;55.10;;;;;;5097266;28;19993;-71
2021/12/04 10:42:40;;;;;;;;;;;6.80;55.40;;;;;;5095803;28;20015;-71
2021/12/04 10:45:09;;;;;;;;;;;6.80;54.90;;;;;;5111190;27;20015;-72
2021/12/04 10:47:37;;;;;;;;;;;6.90;55.00;;;;;;5118945;27;20013;-72
2021/12/04 10:50:20;;;;;;;;;;;7.00;54.80;;;;;;5106105;27;19960;-72
2021/12/04 10:52:52;;;;;;;;;;;7.00;54.50;;;;;;5095203;28;20027;-70
2021/12/04 10:55:23;;;;;;;;;;;7.10;54.60;;;;;;5094027;28;20373;-72
2021/12/04 11:00:49;;;;;;;;;;;7.20;54.50;;;;;;5112422;27;20194;-72
2021/12/04 11:03:30;;;;;;;;;;;7.20;54.40;;;;;;5116333;27;19972;-71
2021/12/04 11:06:36;;;;;;;;;;;7.30;54.30;;;;;;5117473;27;19931;-71
2021/12/04 11:34:55;;;;;;;;;;;7.60;54.20;;;;;;5107440;27;20393;-71
2021/12/04 11:37:56;;;;;;;;;;;7.80;54.10;;;;;;5114429;27;20380;-72
2021/12/04 11:40:36;;;;;;;;;;;7.80;54.00;;;;;;5105612;27;19924;-73
2021/12/04 11:43:08;;;;;;;;;;;7.80;53.90;;;;;;5113239;27;19951;-72
2021/12/04 11:45:44;;;;;;;;;;;7.90;54.40;;;;;;5097829;28;19924;-71
2021/12/04 11:48:12;;;;;;;;;;;7.90;54.00;;;;;;5098373;27;19973;-72
2021/12/04 11:50:41;;;;;;;;;;;8.10;54.90;;;;;;5097736;28;19928;-71
2021/12/04 11:53:12;;;;;;;;;;;8.10;54.80;;;;;;5098208;28;19931;-71
2021/12/04 11:55:44;;;;;;;;;;;8.20;54.80;;;;;;5096416;27;19978;-71
2021/12/04 11:58:22;;;;;;;;;;;8.30;54.70;;;;;;5098336;28;19932;-71
2021/12/04 12:00:53;;;;;;;;;;;8.30;54.30;;;;;;5098647;28;19944;-71
2021/12/04 12:03:23;;;;;;;;;;;8.40;54.10;;;;;;5099145;27;19928;-72
2021/12/04 12:05:53;;;;;;;;;;;8.40;53.10;;;;;;5098923;27;19928;-70
2021/12/04 12:08:22;;;;;;;;;;;8.50;52.90;;;;;;5097794;27;20495;-71
2021/12/04 12:11:00;;;;;;;;;;;8.70;51.90;;;;;;5099340;27;19928;-70
2021/12/04 12:13:29;;;;;;;;;;;8.70;49.40;;;;;;5101776;27;20015;-69
2021/12/04 12:15:59;;;;;;;;;;;8.80;49.20;;;;;;5099534;28;20035;-71
2021/12/04 12:18:28;;;;;;;;;;;8.80;48.50;;;;;;5099079;28;19974;-71
2021/12/04 12:21:08;;;;;;;;;;;8.90;47.70;;;;;;5093117;28;19928;-70
2021/12/04 12:23:40;;;;;;;;;;;9.00;45.50;;;;;;5102336;28;20027;-72
2021/12/04 12:26:16;;;;;;;;;;;9.10;44.60;;;;;;5095311;27;20015;-69
2021/12/04 12:32:01;;;;;;;;;;;9.10;43.60;;;;;;5101281;28;20006;-72
2021/12/04 12:37:17;;;;;;;;;;;9.20;42.80;;;;;;5098152;27;20023;-72
2021/12/04 12:39:53;;;;;;;;;;;9.20;42.10;;;;;;5094194;28;20402;-70
2021/12/04 12:42:27;;;;;;;;;;;9.30;41.60;;;;;;5100890;28;19971;-71
2021/12/04 12:45:11;;;;;;;;;;;9.30;40.40;;;;;;5094450;28;19948;-71
2021/12/04 12:47:47;;;;;;;;;;;9.30;41.50;;;;;;5095984;28;19931;-72
2021/12/04 12:50:25;;;;;;;;;;;9.30;40.80;;;;;;5097413;28;20374;-72
2021/12/04 12:53:00;;;;;;;;;;;9.30;40.30;;;;;;5094272;27;19927;-71
2021/12/04 12:55:32;;;;;;;;;;;9.30;41.50;;;;;;5098435;28;19938;-71
2021/12/04 12:58:11;;;;;;;;;;;9.20;43.00;;;;;;5096743;28;20394;-71
2021/12/04 13:11:53;;;;;;;;;;;9.20;45.30;;;;;;5096915;27;19924;-72
2021/12/04 13:14:23;;;;;;;;;;;9.30;43.60;;;;;;5102479;28;19955;-71
2021/12/04 13:16:52;;;;;;;;;;;9.30;43.50;;;;;;5096113;28;19928;-72
2021/12/04 13:19:23;;;;;;;;;;;9.30;43.80;;;;;;5091739;27;19932;-71
2021/12/04 13:21:52;;;;;;;;;;;9.30;42.70;;;;;;5100223;28;19928;-71
2021/12/04 13:24:22;;;;;;;;;;;9.30;42.60;;;;;;5095211;27;19935;-71
2021/12/04 13:26:52;;;;;;;;;;;9.30;43.30;;;;;;5094940;28;19938;-71
2021/12/04 13:29:23;;;;;;;;;;;9.20;43.70;;;;;;5095954;27;19923;-70
2021/12/04 13:31:53;;;;;;;;;;;9.20;42.80;;;;;;5096742;27;19930;-71
2021/12/04 13:34:23;;;;;;;;;;;9.20;42.70;;;;;;5098505;28;19928;-72
2021/12/04 13:36:53;;;;;;;;;;;9.30;42.70;;;;;;5097992;27;20547;-72
2021/12/04 13:39:21;;;;;;;;;;;9.30;41.90;;;;;;5090643;27;20340;-72
2021/12/04 13:41:49;;;;;;;;;;;9.30;42.70;;;;;;5098692;28;19938;-73
2021/12/04 13:44:18;;;;;;;;;;;9.20;43.40;;;;;;5100234;27;20450;-72
2021/12/04 13:46:49;;;;;;;;;;;9.20;44.20;;;;;;5096298;27;19970;-72
2021/12/04 13:49:18;;;;;;;;;;;9.20;43.90;;;;;;5095234;28;19971;-73
2021/12/04 13:51:51;;;;;;;;;;;9.10;44.70;;;;;;5097890;27;20379;-72
2021/12/04 13:54:19;;;;;;;;;;;9.10;44.50;;;;;;5097809;28;20023;-72
2021/12/04 13:56:47;;;;;;;;;;;9.10;44.80;;;;;;5097853;28;19931;-73
2021/12/04 13:59:15;;;;;;;;;;;9.10;45.50;;;;;;5093884;28;19974;-72
2021/12/04 14:01:43;;;;;;;;;;;9.10;45.60;;;;;;5098554;28;19974;-71
2021/12/04 14:04:19;;;;;;;;;;;9.10;46.60;;;;;;5098897;28;19924;-72
2021/12/04 14:06:51;;;;;;;;;;;9.00;46.70;;;;;;5094652;28;19924;-71
2021/12/04 14:09:20;;;;;;;;;;;9.00;47.00;;;;;;5095764;27;20400;-72
2021/12/04 14:11:53;;;;;;;;;;;9.00;47.30;;;;;;5095075;28;19923;-72
2021/12/04 14:14:22;;;;;;;;;;;9.00;47.70;;;;;;5095115;28;20409;-71
2021/12/04 14:16:54;;;;;;;;;;;8.90;48.30;;;;;;5098617;28;19942;-72
2021/12/04 14:19:24;;;;;;;;;;;8.90;48.30;;;;;;5092992;28;19924;-72
2021/12/04 14:21:55;;;;;;;;;;;9.00;49.30;;;;;;5078023;28;20428;-72
2021/12/04 14:24:24;;;;;;;;;;;8.90;50.60;;;;;;5095245;28;19924;-73
2021/12/04 14:26:54;;;;;;;;;;;9.00;49.80;;;;;;5091669;28;20011;-72
2021/12/04 14:29:25;;;;;;;;;;;8.90;49.50;;;;;;5093159;28;19959;-72
2021/12/04 14:31:55;;;;;;;;;;;8.90;49.60;;;;;;5098356;28;20019;-73
2021/12/04 14:34:26;;;;;;;;;;;8.90;50.20;;;;;;5099584;28;20018;-71
2021/12/04 14:37:05;;;;;;;;;;;8.90;49.50;;;;;;5097197;28;20014;-72
2021/12/04 14:39:33;;;;;;;;;;;8.90;49.90;;;;;;5087669;28;19928;-72
2021/12/04 14:42:09;;;;;;;;;;;9.00;49.60;;;;;;5096551;27;20293;-72
2021/12/04 14:44:37;;;;;;;;;;;9.00;49.00;;;;;;5098420;28;19964;-71
2021/12/04 14:47:05;;;;;;;;;;;9.00;49.10;;;;;;5099756;27;19977;-72
2021/12/04 14:49:36;;;;;;;;;;;9.00;49.20;;;;;;5092221;28;19924;-73
2021/12/04 14:52:04;;;;;;;;;;;9.00;49.10;;;;;;5096210;28;19938;-72
2021/12/04 14:54:35;;;;;;;;;;;8.90;49.80;;;;;;5099758;27;19930;-72
2021/12/04 14:57:12;;;;;;;;;;;8.80;51.80;;;;;;5096969;28;20439;-72
2021/12/04 14:59:40;;;;;;;;;;;8.80;53.40;;;;;;5089949;28;19932;-73
2021/12/04 15:02:13;;;;;;;;;;;8.70;54.50;;;;;;5092479;28;19932;-73
2021/12/04 15:04:43;;;;;;;;;;;8.70;55.20;;;;;;5076998;28;20299;-73
2021/12/04 15:07:21;;;;;;;;;;;8.60;55.90;;;;;;5099485;28;19967;-72
2021/12/04 15:09:51;;;;;;;;;;;8.60;57.30;;;;;;5091539;28;19985;-72
2021/12/04 15:12:26;;;;;;;;;;;8.60;57.80;;;;;;5099396;28;19973;-72
2021/12/04 15:14:55;;;;;;;;;;;8.60;58.40;;;;;;5101707;28;19931;-73
2021/12/04 15:17:24;;;;;;;;;;;8.50;58.50;;;;;;5094227;28;19974;-73
2021/12/04 15:19:54;;;;;;;;;;;8.50;58.80;;;;;;5093760;28;20027;-72
2021/12/04 15:22:32;;;;;;;;;;;8.40;59.50;;;;;;5097499;28;19946;-72
2021/12/04 15:25:01;;;;;;;;;;;8.50;59.90;;;;;;5101252;27;20007;-72
2021/12/04 15:27:30;;;;;;;;;;;8.50;60.60;;;;;;5101993;28;19924;-72
2021/12/04 15:29:59;;;;;;;;;;;8.50;61.10;;;;;;5093457;28;20363;-72
2021/12/04 15:32:28;;;;;;;;;;;8.50;61.10;;;;;;5098363;28;19944;-71
2021/12/04 15:35:03;;;;;;;;;;;8.40;61.00;;;;;;5101605;28;19966;-71
2021/12/04 15:37:38;;;;;;;;;;;8.40;61.10;;;;;;5104165;27;19930;-71
2021/12/04 15:40:07;;;;;;;;;;;8.40;61.10;;;;;;5095764;28;19924;-72
2021/12/04 15:42:49;;;;;;;;;;;8.30;61.00;;;;;;5104146;28;19924;-71
2021/12/04 15:45:26;;;;;;;;;;;8.30;61.10;;;;;;5097095;27;20303;-71
2021/12/04 15:48:19;;;;;;;;;;;8.30;61.50;;;;;;5097736;28;19978;-71
2021/12/04 15:51:03;;;;;;;;;;;8.30;61.70;;;;;;5091711;28;20375;-70
2021/12/04 15:53:32;;;;;;;;;;;8.30;61.70;;;;;;5097537;27;19951;-72
2021/12/04 15:56:01;;;;;;;;;;;8.40;61.50;;;;;;5103591;27;19967;-72
2021/12/04 15:58:32;;;;;;;;;;;8.50;61.00;;;;;;5094186;28;20034;-73
2021/12/04 16:01:04;;;;;;;;;;;8.50;60.30;;;;;;5099302;27;19960;-71
2021/12/04 16:03:37;;;;;;;;;;;8.50;59.10;;;;;;5097658;27;19932;-72
2021/12/04 16:06:11;;;;;;;;;;;8.50;58.30;;;;;;5100084;28;19978;-72
2021/12/04 16:08:39;;;;;;;;;;;8.40;58.30;;;;;;5092974;28;19928;-71
2021/12/04 16:11:14;;;;;;;;;;;8.40;58.00;;;;;;5093994;28;19924;-71
2021/12/04 16:13:48;;;;;;;;;;;8.40;57.90;;;;;;5100804;28;19955;-71
2021/12/04 16:16:18;;;;;;;;;;;8.30;57.70;;;;;;5096988;28;19928;-71
2021/12/04 16:18:51;;;;;;;;;;;8.30;57.60;;;;;;5096012;27;20410;-72
2021/12/04 16:21:21;;;;;;;;;;;8.30;57.60;;;;;;5099148;27;19970;-72
2021/12/04 16:23:51;;;;;;;;;;;8.30;57.30;;;;;;5097559;28;19932;-71
2021/12/04 16:26:24;;;;;;;;;;;8.30;57.00;;;;;;5097238;27;19924;-71
2021/12/04 16:37:31;;;;;;;;;;;8.30;54.20;;;;;;5100346;28;19932;-72
2021/12/04 16:39:59;;;;;;;;;;;8.30;53.50;;;;;;5091873;28;20288;-71
2021/12/04 16:42:28;;;;;;;;;;;8.20;53.10;;;;;;5099435;27;20367;-70
2021/12/04 16:45:16;;;;;;;;;;;8.10;53.40;;;;;;5099464;28;19927;-72
2021/12/04 16:47:49;;;;;;;;;;;8.10;54.00;;;;;;5098023;27;20019;-70
2021/12/04 16:50:20;;;;;;;;;;;8.10;54.40;;;;;;5095891;27;19924;-71
2021/12/04 16:55:45;;;;;;;;;;;8.00;53.90;;;;;;5092682;28;20008;-70
2021/12/04 16:58:17;;;;;;;;;;;8.00;54.90;;;;;;5094785;27;20038;-72
2021/12/04 17:00:47;;;;;;;;;;;8.00;54.70;;;;;;5095565;28;19928;-70
2021/12/04 17:03:18;;;;;;;;;;;8.00;54.40;;;;;;5101861;27;20299;-71
2021/12/04 17:05:47;;;;;;;;;;;7.90;53.90;;;;;;5096093;27;20399;-71
2021/12/04 17:08:16;;;;;;;;;;;8.00;54.10;;;;;;5095594;28;19934;-71
2021/12/04 17:10:44;;;;;;;;;;;8.00;53.20;;;;;;5095008;28;20391;-70
2021/12/04 17:13:14;;;;;;;;;;;8.10;51.30;;;;;;5098358;28;20314;-70
2021/12/04 17:15:46;;;;;;;;;;;8.10;50.20;;;;;;5100619;27;19930;-72
2021/12/04 17:18:17;;;;;;;;;;;8.10;49.70;;;;;;5095168;27;19923;-69
2021/12/04 17:20:46;;;;;;;;;;;8.20;48.80;;;;;;5095498;28;19955;-70
2021/12/04 17:23:14;;;;;;;;;;;8.20;46.50;;;;;;5098951;28;19924;-72
2021/12/04 17:25:43;;;;;;;;;;;8.20;44.90;;;;;;5097937;27;19928;-70
2021/12/04 17:28:13;;;;;;;;;;;8.20;44.80;;;;;;5098723;28;20242;-72